sensor_id;sensor_type;location;lat;lon;timestamp;pressure;altitude;pressure_sealevel;temperature
30765;BMP180;494;48.744;10.106;2024-01-25T00:36:43;95991.00;;;9.00
30765;BMP180;494;48.744;10.106;2024-01-25T01:47:31;96549.00;;;9.60
30765;BMP180;494;48.744;10.106;2024-01-25T01:50:52;96665.00;;;9.70
30765;BMP180;494;48.744;10.106;2024-01-25T02:31:35;96105.00;;;9.20
30765;BMP180;494;48.744;10.106;2024-01-25T02:45:27;96677.00;;;9.60
30765;BMP180;494;48.744;10.106;2024-01-25T03:13:58;96679.00;;;9.50
30765;BMP180;494;48.744;10.106;2024-01-25T03:29:41;96704.00;;;6.80
30765;BMP180;494;48.744;10.106;2024-01-25T03:46:30;95860.00;;;9.10
30765;BMP180;494;48.744;10.106;2024-01-25T03:48:59;96670.00;;;9.40
30765;BMP180;494;48.744;10.106;2024-01-25T03:51:28;95898.00;;;9.20
30765;BMP180;494;48.744;10.106;2024-01-25T03:58:55;96090.00;;;7.90
30765;BMP180;494;48.744;10.106;2024-01-25T04:07:21;96700.00;;;9.30
30765;BMP180;494;48.744;10.106;2024-01-25T04:17:08;96454.00;;;8.50
30765;BMP180;494;48.744;10.106;2024-01-25T04:20:31;96349.00;;;9.10
30765;BMP180;494;48.744;10.106;2024-01-25T04:53:05;96706.00;;;9.10
30765;BMP180;494;48.744;10.106;2024-01-25T04:57:06;96709.00;;;9.20
30765;BMP180;494;48.744;10.106;2024-01-25T05:13:48;96363.00;;;8.50
30765;BMP180;494;48.744;10.106;2024-01-25T05:21:46;96803.00;;;7.30
30765;BMP180;494;48.744;10.106;2024-01-25T05:24:35;96751.00;;;8.30
30765;BMP180;494;48.744;10.106;2024-01-25T09:56:35;96409.00;;;13.50
30765;BMP180;494;48.744;10.106;2024-01-25T12:35:50;96086.00;;;18.60
30765;BMP180;494;48.744;10.106;2024-01-25T12:40:15;96870.00;;;18.70
30765;BMP180;494;48.744;10.106;2024-01-25T12:43:14;96861.00;;;18.40
30765;BMP180;494;48.744;10.106;2024-01-25T12:47:00;96702.00;;;16.30
30765;BMP180;494;48.744;10.106;2024-01-25T16:02:59;97041.00;;;10.90
30765;BMP180;494;48.744;10.106;2024-01-25T16:05:50;96815.00;;;9.90
30765;BMP180;494;48.744;10.106;2024-01-25T16:08:52;96318.00;;;10.60
30765;BMP180;494;48.744;10.106;2024-01-25T16:11:38;96198.00;;;10.40
30765;BMP180;494;48.744;10.106;2024-01-25T16:14:32;96887.00;;;10.20
30765;BMP180;494;48.744;10.106;2024-01-25T16:18:53;96736.00;;;9.80
30765;BMP180;494;48.744;10.106;2024-01-25T16:50:22;96757.00;;;5.70
30765;BMP180;494;48.744;10.106;2024-01-25T16:53:38;96790.00;;;8.50
30765;BMP180;494;48.744;10.106;2024-01-25T17:01:56;96731.00;;;8.10
30765;BMP180;494;48.744;10.106;2024-01-25T17:07:36;96412.00;;;8.00
30765;BMP180;494;48.744;10.106;2024-01-25T17:11:30;96789.00;;;8.10
30765;BMP180;494;48.744;10.106;2024-01-25T17:14:32;96588.00;;;8.10
30765;BMP180;494;48.744;10.106;2024-01-25T17:18:07;96442.00;;;7.70
30765;BMP180;494;48.744;10.106;2024-01-25T17:21:42;97011.00;;;7.80
30765;BMP180;494;48.744;10.106;2024-01-25T17:25:03;96881.00;;;5.80
30765;BMP180;494;48.744;10.106;2024-01-25T17:37:31;96822.00;;;8.00
30765;BMP180;494;48.744;10.106;2024-01-25T18:21:09;96889.00;;;6.40
30765;BMP180;494;48.744;10.106;2024-01-25T18:24:29;96907.00;;;7.50
30765;BMP180;494;48.744;10.106;2024-01-25T18:28:20;96764.00;;;7.70
30765;BMP180;494;48.744;10.106;2024-01-25T18:31:19;96362.00;;;7.10
30765;BMP180;494;48.744;10.106;2024-01-25T18:38:43;96757.00;;;7.70
30765;BMP180;494;48.744;10.106;2024-01-25T18:42:15;96086.00;;;7.90
30765;BMP180;494;48.744;10.106;2024-01-25T18:46:28;96771.00;;;6.10
30765;BMP180;494;48.744;10.106;2024-01-25T18:51:37;95933.00;;;8.20
30765;BMP180;494;48.744;10.106;2024-01-25T19:39:53;96848.00;;;7.70
30765;BMP180;494;48.744;10.106;2024-01-25T19:42:52;96744.00;;;7.50
30765;BMP180;494;48.744;10.106;2024-01-25T19:45:46;95997.00;;;7.40
30765;BMP180;494;48.744;10.106;2024-01-25T19:48:32;96756.00;;;7.60
30765;BMP180;494;48.744;10.106;2024-01-25T19:51:15;96709.00;;;7.20
30765;BMP180;494;48.744;10.106;2024-01-25T19:53:56;96809.00;;;6.90
30765;BMP180;494;48.744;10.106;2024-01-25T19:56:42;96821.00;;;7.50
30765;BMP180;494;48.744;10.106;2024-01-25T19:59:23;96713.00;;;7.50
30765;BMP180;494;48.744;10.106;2024-01-25T20:02:01;96822.00;;;7.50
30765;BMP180;494;48.744;10.106;2024-01-25T20:04:36;96381.00;;;7.50
30765;BMP180;494;48.744;10.106;2024-01-25T20:07:07;96797.00;;;7.70
30765;BMP180;494;48.744;10.106;2024-01-25T20:09:43;96370.00;;;7.60
30765;BMP180;494;48.744;10.106;2024-01-25T20:12:26;96269.00;;;7.70
30765;BMP180;494;48.744;10.106;2024-01-25T20:15:11;96705.00;;;7.80
30765;BMP180;494;48.744;10.106;2024-01-25T20:17:48;96764.00;;;7.40
30765;BMP180;494;48.744;10.106;2024-01-25T20:20:22;95943.00;;;7.80
30765;BMP180;494;48.744;10.106;2024-01-25T20:23:09;96683.00;;;8.00
30765;BMP180;494;48.744;10.106;2024-01-25T20:25:44;96816.00;;;6.80
30765;BMP180;494;48.744;10.106;2024-01-25T20:28:21;96795.00;;;8.10
30765;BMP180;494;48.744;10.106;2024-01-25T20:30:52;96694.00;;;8.00
30765;BMP180;494;48.744;10.106;2024-01-25T20:33:23;96593.00;;;6.20
30765;BMP180;494;48.744;10.106;2024-01-25T20:36:12;96270.00;;;8.30
30765;BMP180;494;48.744;10.106;2024-01-25T20:38:46;96164.00;;;8.10
30765;BMP180;494;48.744;10.106;2024-01-25T20:41:35;96752.00;;;7.70
30765;BMP180;494;48.744;10.106;2024-01-25T20:44:07;96702.00;;;7.70
30765;BMP180;494;48.744;10.106;2024-01-25T20:46:44;96016.00;;;8.30
30765;BMP180;494;48.744;10.106;2024-01-25T20:49:24;96705.00;;;8.20
30765;BMP180;494;48.744;10.106;2024-01-25T20:52:08;96213.00;;;8.10
30765;BMP180;494;48.744;10.106;2024-01-25T20:54:56;96789.00;;;8.10
30765;BMP180;494;48.744;10.106;2024-01-25T20:58:01;96350.00;;;5.50
30765;BMP180;494;48.744;10.106;2024-01-25T21:00:51;96281.00;;;7.70
30765;BMP180;494;48.744;10.106;2024-01-25T21:03:52;96711.00;;;8.20
30765;BMP180;494;48.744;10.106;2024-01-25T21:06:32;96754.00;;;8.20
30765;BMP180;494;48.744;10.106;2024-01-25T21:09:05;96231.00;;;8.10
30765;BMP180;494;48.744;10.106;2024-01-25T21:11:41;96684.00;;;8.10
30765;BMP180;494;48.744;10.106;2024-01-25T21:14:15;96108.00;;;8.10
30765;BMP180;494;48.744;10.106;2024-01-25T21:16:45;96116.00;;;5.50
30765;BMP180;494;48.744;10.106;2024-01-25T21:19:20;96317.00;;;8.00
30765;BMP180;494;48.744;10.106;2024-01-25T21:21:50;96343.00;;;5.60
30765;BMP180;494;48.744;10.106;2024-01-25T21:24:20;96248.00;;;7.70
30765;BMP180;494;48.744;10.106;2024-01-25T21:26:52;95903.00;;;7.90
30765;BMP180;494;48.744;10.106;2024-01-25T21:29:28;96836.00;;;8.00
30765;BMP180;494;48.744;10.106;2024-01-25T21:31:57;96327.00;;;8.10
30765;BMP180;494;48.744;10.106;2024-01-25T21:34:26;96762.00;;;8.10
30765;BMP180;494;48.744;10.106;2024-01-25T21:36:55;96053.00;;;8.30
30765;BMP180;494;48.744;10.106;2024-01-25T21:39:26;96310.00;;;8.10
30765;BMP180;494;48.744;10.106;2024-01-25T21:41:55;96837.00;;;6.80
30765;BMP180;494;48.744;10.106;2024-01-25T21:44:30;96209.00;;;8.00
30765;BMP180;494;48.744;10.106;2024-01-25T21:47:06;96063.00;;;8.70
30765;BMP180;494;48.744;10.106;2024-01-25T21:49:36;96858.00;;;8.50
30765;BMP180;494;48.744;10.106;2024-01-25T21:52:05;96780.00;;;6.70
30765;BMP180;494;48.744;10.106;2024-01-25T21:54:35;96742.00;;;8.50
30765;BMP180;494;48.744;10.106;2024-01-25T21:57:05;96786.00;;;8.40
30765;BMP180;494;48.744;10.106;2024-01-25T21:59:40;96222.00;;;8.60
30765;BMP180;494;48.744;10.106;2024-01-25T22:02:09;96833.00;;;7.20
30765;BMP180;494;48.744;10.106;2024-01-25T22:04:40;96340.00;;;8.60
30765;BMP180;494;48.744;10.106;2024-01-25T22:07:11;96358.00;;;6.30
30765;BMP180;494;48.744;10.106;2024-01-25T22:09:49;96019.00;;;8.60
30765;BMP180;494;48.744;10.106;2024-01-25T22:12:21;96758.00;;;8.50
30765;BMP180;494;48.744;10.106;2024-01-25T22:14:53;96156.00;;;8.40
30765;BMP180;494;48.744;10.106;2024-01-25T22:17:22;96696.00;;;8.40
30765;BMP180;494;48.744;10.106;2024-01-25T22:20:08;96657.00;;;8.50
30765;BMP180;494;48.744;10.106;2024-01-25T22:22:40;96419.00;;;8.00
30765;BMP180;494;48.744;10.106;2024-01-25T22:25:10;96357.00;;;8.70
30765;BMP180;494;48.744;10.106;2024-01-25T22:27:40;96132.00;;;6.70
30765;BMP180;494;48.744;10.106;2024-01-25T22:30:20;96721.00;;;8.80
30765;BMP180;494;48.744;10.106;2024-01-25T22:32:52;96780.00;;;8.80
30765;BMP180;494;48.744;10.106;2024-01-25T22:35:21;96704.00;;;8.90
30765;BMP180;494;48.744;10.106;2024-01-25T22:37:54;96634.00;;;8.40
30765;BMP180;494;48.744;10.106;2024-01-25T22:40:24;96707.00;;;9.00
30765;BMP180;494;48.744;10.106;2024-01-25T22:42:55;96289.00;;;9.00
30765;BMP180;494;48.744;10.106;2024-01-25T22:45:29;96320.00;;;8.20
30765;BMP180;494;48.744;10.106;2024-01-25T22:48:04;96356.00;;;9.10
30765;BMP180;494;48.744;10.106;2024-01-25T22:50:34;96141.00;;;7.90
30765;BMP180;494;48.744;10.106;2024-01-25T22:53:20;95951.00;;;9.00
30765;BMP180;494;48.744;10.106;2024-01-25T22:55:50;96692.00;;;9.00
30765;BMP180;494;48.744;10.106;2024-01-25T22:58:19;95882.00;;;9.00
30765;BMP180;494;48.744;10.106;2024-01-25T23:00:50;95971.00;;;9.10
30765;BMP180;494;48.744;10.106;2024-01-25T23:03:22;96665.00;;;9.10
30765;BMP180;494;48.744;10.106;2024-01-25T23:05:55;96779.00;;;7.80
30765;BMP180;494;48.744;10.106;2024-01-25T23:08:25;96288.00;;;8.60
30765;BMP180;494;48.744;10.106;2024-01-25T23:10:57;96705.00;;;9.30
30765;BMP180;494;48.744;10.106;2024-01-25T23:13:26;96684.00;;;8.60
30765;BMP180;494;48.744;10.106;2024-01-25T23:16:00;96470.00;;;8.00
30765;BMP180;494;48.744;10.106;2024-01-25T23:18:31;96850.00;;;9.40
30765;BMP180;494;48.744;10.106;2024-01-25T23:21:01;96702.00;;;9.40
30765;BMP180;494;48.744;10.106;2024-01-25T23:23:30;96283.00;;;9.40
30765;BMP180;494;48.744;10.106;2024-01-25T23:25:59;96714.00;;;7.80
30765;BMP180;494;48.744;10.106;2024-01-25T23:28:28;96756.00;;;9.40
30765;BMP180;494;48.744;10.106;2024-01-25T23:30:59;96685.00;;;9.70
30765;BMP180;494;48.744;10.106;2024-01-25T23:33:28;96342.00;;;9.20
30765;BMP180;494;48.744;10.106;2024-01-25T23:35:58;96542.00;;;9.90
30765;BMP180;494;48.744;10.106;2024-01-25T23:38:27;96361.00;;;7.70
30765;BMP180;494;48.744;10.106;2024-01-25T23:40:56;96516.00;;;9.60
30765;BMP180;494;48.744;10.106;2024-01-25T23:43:25;96690.00;;;9.90
30765;BMP180;494;48.744;10.106;2024-01-25T23:45:55;96728.00;;;9.90
30765;BMP180;494;48.744;10.106;2024-01-25T23:48:27;95873.00;;;10.00
30765;BMP180;494;48.744;10.106;2024-01-25T23:51:00;96681.00;;;7.70
30765;BMP180;494;48.744;10.106;2024-01-25T23:53:30;96159.00;;;9.20
30765;BMP180;494;48.744;10.106;2024-01-25T23:56:00;96723.00;;;8.30
30765;BMP180;494;48.744;10.106;2024-01-25T23:58:30;96646.00;;;9.10
